Time,TemperatureF,DewpointF,PressureIn,WindDirection,WindDirectionDegrees,WindSpeedMPH,WindSpeedGustMPH,Humidity,HourlyPrecipIn,Conditions,Clouds,dailyrainin,SoftwareType,DateUTC
2013-04-19 00:01:00,52.2,44.8,30.10,South,180,3.1,3.1,76,0.00,,,0.00,meteobridge,2013-04-19 04:01:00,
2013-04-19 00:02:00,52.3,45.0,30.10,SW,225,2.2,3.1,76,0.00,,,0.00,meteobridge,2013-04-19 04:02:00,
2013-04-19 00:03:00,52.3,45.0,30.10,SW,225,2.2,2.2,76,0.00,,,0.00,meteobridge,2013-04-19 04:03:00,
2013-04-19 00:06:00,52.2,44.8,30.10,East,90,3.1,3.1,76,0.00,,,0.00,meteobridge,2013-04-19 04:06:00,
2013-04-19 00:12:00,52.2,44.8,30.09,SE,135,1.6,3.1,76,0.00,,,0.00,meteobridge,2013-04-19 04:12:00,
2013-04-19 00:17:00,52.3,45.3,30.09,SE,135,3.8,3.8,77,0.00,,,0.00,meteobridge,2013-04-19 04:17:00,
2013-04-19 00:23:00,52.3,45.3,30.09,South,180,2.2,4.5,77,0.00,,,0.00,meteobridge,2013-04-19 04:23:00,
2013-04-19 00:29:00,52.5,45.9,30.09,East,90,5.4,5.4,78,0.00,,,0.00,meteobridge,2013-04-19 04:29:00,
2013-04-19 00:34:00,52.3,45.7,30.09,SE,135,3.1,4.5,78,0.00,,,0.00,meteobridge,2013-04-19 04:34:00,
2013-04-19 00:40:00,52.3,45.7,30.09,South,180,1.6,2.2,78,0.00,,,0.00,meteobridge,2013-04-19 04:40:00,
2013-04-19 00:46:00,52.3,46.0,30.08,East,90,2.2,2.2,79,0.00,,,0.00,meteobridge,2013-04-19 04:46:00,
2013-04-19 00:51:00,52.5,46.2,30.07,SW,225,1.6,1.6,79,0.00,,,0.00,meteobridge,2013-04-19 04:51:00,
2013-04-19 00:57:00,52.5,46.2,30.07,East,90,3.1,3.1,79,0.00,,,0.00,meteobridge,2013-04-19 04:57:00,
2013-04-19 01:02:00,52.5,46.6,30.06,South,180,0.0,4.5,80,0.00,,,0.00,meteobridge,2013-04-19 05:02:00,
2013-04-19 01:08:00,52.7,47.1,30.06,East,90,1.6,3.1,81,0.00,,,0.00,meteobridge,2013-04-19 05:08:00,
2013-04-19 01:14:00,52.7,47.1,30.06,East,90,0.0,1.6,81,0.00,,,0.00,meteobridge,2013-04-19 05:14:00,
2013-04-19 01:19:00,52.5,46.9,30.05,SW,225,2.2,3.8,81,0.00,,,0.00,meteobridge,2013-04-19 05:19:00,
2013-04-19 01:25:00,52.7,47.1,30.05,East,90,1.6,1.6,81,0.00,,,0.00,meteobridge,2013-04-19 05:25:00,
2013-04-19 01:31:00,52.7,47.3,30.04,South,180,6.9,6.9,82,0.00,,,0.00,meteobridge,2013-04-19 05:31:00,
2013-04-19 01:36:00,52.7,47.7,30.04,South,180,0.0,3.1,83,0.00,,,0.00,meteobridge,2013-04-19 05:36:00,
2013-04-19 01:42:00,52.7,47.7,30.04,SE,135,2.2,2.2,83,0.00,,,0.00,meteobridge,2013-04-19 05:42:00,
2013-04-19 01:48:00,52.7,48.0,30.04,South,180,0.0,1.6,84,0.00,,,0.00,meteobridge,2013-04-19 05:48:00,
2013-04-19 01:53:00,52.7,48.0,30.03,East,90,0.0,0.7,84,0.00,,,0.00,meteobridge,2013-04-19 05:53:00,
2013-04-19 01:59:00,52.5,48.2,30.03,East,90,3.1,3.8,85,0.00,,,0.00,meteobridge,2013-04-19 05:59:00,
2013-04-19 02:04:00,52.5,48.4,30.03,SE,135,3.8,3.8,86,0.00,,,0.00,meteobridge,2013-04-19 06:04:00,
2013-04-19 02:10:00,52.3,48.2,30.03,South,180,0.0,2.2,86,0.00,,,0.00,meteobridge,2013-04-19 06:10:00,
2013-04-19 02:16:00,52.3,48.6,30.03,South,180,0.0,0.7,87,0.00,,,0.00,meteobridge,2013-04-19 06:16:00,
2013-04-19 02:21:00,52.3,48.6,30.03,South,180,0.0,0.0,87,0.00,,,0.00,meteobridge,2013-04-19 06:21:00,
2013-04-19 02:27:00,52.3,48.9,30.03,West,270,0.0,0.0,88,0.00,,,0.00,meteobridge,2013-04-19 06:27:00,
2013-04-19 02:33:00,52.3,48.9,30.03,South,180,0.0,1.6,88,0.00,,,0.00,meteobridge,2013-04-19 06:33:00,
2013-04-19 02:38:00,52.3,48.9,30.03,West,270,0.7,1.6,88,0.00,,,0.00,meteobridge,2013-04-19 06:38:00,
2013-04-19 02:44:00,51.8,48.4,30.03,West,270,3.1,3.1,88,0.00,,,0.00,meteobridge,2013-04-19 06:44:00,
2013-04-19 02:49:00,51.6,48.6,30.03,South,180,0.0,1.6,89,0.00,,,0.00,meteobridge,2013-04-19 06:49:00,
2013-04-19 02:55:00,51.4,48.6,30.02,South,180,2.2,2.2,90,0.00,,,0.00,meteobridge,2013-04-19 06:55:00,
2013-04-19 03:01:00,51.4,48.9,30.02,South,180,0.0,0.7,91,0.00,,,0.00,meteobridge,2013-04-19 07:01:00,
2013-04-19 03:06:00,51.4,48.9,30.01,South,180,0.0,0.0,91,0.00,,,0.00,meteobridge,2013-04-19 07:06:00,
2013-04-19 03:12:00,51.6,49.5,30.01,West,270,0.0,0.0,92,0.00,,,0.00,meteobridge,2013-04-19 07:12:00,
2013-04-19 03:18:00,51.6,49.5,30.01,West,270,0.7,2.2,92,0.00,,,0.00,meteobridge,2013-04-19 07:18:00,
2013-04-19 03:23:00,51.6,49.6,30.01,South,180,0.0,0.0,93,0.00,,,0.00,meteobridge,2013-04-19 07:23:00,
2013-04-19 03:29:00,51.6,49.6,30.01,West,270,0.0,0.0,93,0.00,,,0.00,meteobridge,2013-04-19 07:29:00,
2013-04-19 03:35:00,51.6,49.6,30.01,SW,225,1.6,1.6,93,0.00,,,0.00,meteobridge,2013-04-19 07:35:00,
2013-04-19 03:40:00,51.8,49.6,30.00,West,270,0.7,0.7,92,0.00,,,0.00,meteobridge,2013-04-19 07:40:00,
2013-04-19 03:46:00,51.6,49.6,30.00,West,270,0.0,0.0,93,0.00,,,0.00,meteobridge,2013-04-19 07:46:00,
2013-04-19 03:51:00,51.6,49.6,29.99,West,270,1.6,3.1,93,0.00,,,0.00,meteobridge,2013-04-19 07:51:00,
2013-04-19 03:57:00,51.6,49.6,29.98,South,180,2.2,2.2,93,0.00,,,0.00,meteobridge,2013-04-19 07:57:00,
2013-04-19 04:03:00,51.6,49.6,29.98,South,180,0.0,0.0,93,0.00,,,0.00,meteobridge,2013-04-19 08:03:00,
2013-04-19 04:08:00,51.6,50.0,29.97,West,270,2.2,2.2,94,0.00,,,0.00,meteobridge,2013-04-19 08:08:00,
2013-04-19 04:14:00,51.6,50.0,29.96,West,270,0.7,3.1,94,0.00,,,0.00,meteobridge,2013-04-19 08:14:00,
2013-04-19 04:20:00,51.6,50.0,29.96,SW,225,2.2,2.2,94,0.00,,,0.00,meteobridge,2013-04-19 08:20:00,
2013-04-19 04:25:00,51.6,50.0,29.96,West,270,3.1,3.1,94,0.00,,,0.00,meteobridge,2013-04-19 08:25:00,
2013-04-19 04:31:00,51.6,50.0,29.96,West,270,2.2,3.1,94,0.00,,,0.00,meteobridge,2013-04-19 08:31:00,
2013-04-19 04:37:00,51.6,50.0,29.97,SW,225,1.6,3.1,94,0.00,,,0.00,meteobridge,2013-04-19 08:37:00,
2013-04-19 04:42:00,52.0,50.0,29.96,East,90,0.7,2.2,93,0.00,,,0.00,meteobridge,2013-04-19 08:42:00,
2013-04-19 04:48:00,52.2,50.2,29.97,South,180,0.0,1.6,93,0.00,,,0.00,meteobridge,2013-04-19 08:48:00,
2013-04-19 04:53:00,52.3,50.4,29.97,South,180,0.0,0.0,93,0.00,,,0.00,meteobridge,2013-04-19 08:53:00,
2013-04-19 04:59:00,52.3,50.7,29.97,South,180,0.0,0.0,94,0.00,,,0.00,meteobridge,2013-04-19 08:59:00,
2013-04-19 05:05:00,52.5,50.9,29.96,South,180,0.0,0.0,94,0.00,,,0.00,meteobridge,2013-04-19 09:05:00,
2013-04-19 05:10:00,52.5,50.9,29.97,South,180,0.0,0.0,94,0.00,,,0.00,meteobridge,2013-04-19 09:10:00,
2013-04-19 05:16:00,52.5,50.9,29.96,South,180,0.0,0.0,94,0.00,,,0.00,meteobridge,2013-04-19 09:16:00,
2013-04-19 05:22:00,52.7,51.1,29.96,South,180,0.0,0.0,94,0.00,,,0.00,meteobridge,2013-04-19 09:22:00,
2013-04-19 05:27:00,52.9,51.3,29.96,South,180,0.0,0.0,94,0.00,,,0.00,meteobridge,2013-04-19 09:27:00,
2013-04-19 05:33:00,53.1,51.6,29.96,South,180,0.0,0.0,95,0.00,,,0.00,meteobridge,2013-04-19 09:33:00,
2013-04-19 05:38:00,53.1,51.6,29.95,South,180,0.0,0.0,95,0.00,,,0.00,meteobridge,2013-04-19 09:38:00,
2013-04-19 05:44:00,52.7,51.3,29.96,South,180,0.0,2.2,95,0.00,,,0.00,meteobridge,2013-04-19 09:44:00,
2013-04-19 05:50:00,52.7,51.3,29.95,South,180,0.7,1.6,95,0.00,,,0.00,meteobridge,2013-04-19 09:50:00,
2013-04-19 05:55:00,53.2,51.8,29.95,SE,135,4.5,4.5,95,0.00,,,0.00,meteobridge,2013-04-19 09:55:00,
2013-04-19 06:01:00,54.5,52.9,29.95,SE,135,3.8,3.8,94,0.00,,,0.00,meteobridge,2013-04-19 10:01:00,
2013-04-19 06:07:00,55.2,53.8,29.95,East,90,3.1,3.1,95,0.00,,,0.00,meteobridge,2013-04-19 10:07:00,
2013-04-19 06:12:00,54.1,52.7,29.95,South,180,1.6,1.6,95,0.00,,,0.00,meteobridge,2013-04-19 10:12:00,
2013-04-19 06:18:00,55.0,53.6,29.94,West,270,1.6,6.9,95,0.00,,,0.00,meteobridge,2013-04-19 10:18:00,
2013-04-19 06:24:00,55.2,53.8,29.95,South,180,2.2,4.5,95,0.00,,,0.00,meteobridge,2013-04-19 10:24:00,
2013-04-19 06:29:00,55.8,54.3,29.95,East,90,2.2,3.1,95,0.00,,,0.00,meteobridge,2013-04-19 10:29:00,
2013-04-19 06:35:00,55.9,54.5,29.94,East,90,3.1,5.4,95,0.00,,,0.00,meteobridge,2013-04-19 10:35:00,
2013-04-19 06:40:00,56.3,54.9,29.94,East,90,3.8,4.5,95,0.00,,,0.00,meteobridge,2013-04-19 10:40:00,
2013-04-19 06:46:00,56.5,55.0,29.94,SE,135,11.4,11.4,95,0.00,,,0.00,meteobridge,2013-04-19 10:46:00,
2013-04-19 06:52:00,56.7,55.2,29.94,East,90,3.8,4.5,95,0.00,,,0.00,meteobridge,2013-04-19 10:52:00,
2013-04-19 06:57:00,56.8,55.4,29.93,SE,135,5.4,6.0,95,0.00,,,0.00,meteobridge,2013-04-19 10:57:00,
2013-04-19 07:03:00,57.0,55.6,29.94,East,90,5.4,7.6,95,0.00,,,0.00,meteobridge,2013-04-19 11:03:00,
2013-04-19 07:09:00,57.0,55.6,29.94,East,90,2.2,8.3,95,0.00,,,0.00,meteobridge,2013-04-19 11:09:00,
2013-04-19 07:14:00,57.2,55.4,29.94,South,180,2.2,3.1,94,0.00,,,0.00,meteobridge,2013-04-19 11:14:00,
2013-04-19 07:20:00,57.4,55.6,29.94,South,180,4.5,6.0,94,0.00,,,0.00,meteobridge,2013-04-19 11:20:00,
2013-04-19 07:25:00,57.6,55.8,29.95,SE,135,4.5,4.5,94,0.00,,,0.00,meteobridge,2013-04-19 11:25:00,
2013-04-19 07:31:00,57.7,55.9,29.95,East,90,5.4,5.4,94,0.00,,,0.00,meteobridge,2013-04-19 11:31:00,
2013-04-19 07:37:00,57.9,55.9,29.96,South,180,3.1,7.6,93,0.00,,,0.00,meteobridge,2013-04-19 11:37:00,
2013-04-19 07:42:00,57.9,55.9,29.96,East,90,4.5,4.5,93,0.00,,,0.00,meteobridge,2013-04-19 11:42:00,
2013-04-19 07:48:00,58.3,56.3,29.96,South,180,2.2,2.2,93,0.00,,,0.00,meteobridge,2013-04-19 11:48:00,
2013-04-19 07:54:00,58.6,56.3,29.96,South,180,3.1,3.1,92,0.00,,,0.00,meteobridge,2013-04-19 11:54:00,
2013-04-19 07:59:00,59.2,56.5,29.95,South,180,0.0,0.0,91,0.00,,,0.00,meteobridge,2013-04-19 11:59:00,
2013-04-19 08:05:00,59.2,56.3,29.95,South,180,3.1,5.4,90,0.00,,,0.00,meteobridge,2013-04-19 12:05:00,
2013-04-19 08:11:00,59.2,55.9,29.95,East,90,1.6,1.6,89,0.00,,,0.00,meteobridge,2013-04-19 12:11:00,
2013-04-19 08:16:00,59.2,55.9,29.94,North,0,1.6,1.6,89,0.00,,,0.00,meteobridge,2013-04-19 12:16:00,
2013-04-19 08:22:00,59.2,55.6,29.94,SW,225,2.2,5.4,88,0.00,,,0.00,meteobridge,2013-04-19 12:22:00,
2013-04-19 08:27:00,59.5,55.9,29.94,SE,135,5.4,5.4,88,0.00,,,0.00,meteobridge,2013-04-19 12:27:00,
2013-04-19 08:33:00,59.7,56.1,29.94,South,180,2.2,3.8,88,0.00,,,0.00,meteobridge,2013-04-19 12:33:00,
2013-04-19 08:39:00,60.1,56.1,29.93,South,180,2.2,3.1,87,0.00,,,0.00,meteobridge,2013-04-19 12:39:00,
2013-04-19 08:44:00,60.3,56.3,29.93,SE,135,5.4,5.4,87,0.00,,,0.00,meteobridge,2013-04-19 12:44:00,
2013-04-19 08:49:00,60.6,56.5,29.93,SW,225,8.3,8.3,86,0.00,,,0.00,meteobridge,2013-04-19 12:49:00,
2013-04-19 08:55:00,60.8,56.3,29.93,South,180,4.5,12.1,85,0.00,,,0.00,meteobridge,2013-04-19 12:55:00,
2013-04-19 09:01:00,61.2,56.3,29.93,SE,135,15.2,15.2,84,0.00,,,0.00,meteobridge,2013-04-19 13:01:00,
2013-04-19 09:06:00,61.7,56.8,29.92,SE,135,4.5,5.4,84,0.00,,,0.00,meteobridge,2013-04-19 13:06:00,
2013-04-19 09:12:00,61.9,56.7,29.92,SE,135,8.3,8.3,83,0.00,,,0.00,meteobridge,2013-04-19 13:12:00,
2013-04-19 09:17:00,61.9,56.3,29.92,SE,135,5.4,7.6,82,0.00,,,0.00,meteobridge,2013-04-19 13:17:00,
2013-04-19 09:23:00,62.1,56.5,29.92,North,0,2.2,13.6,82,0.00,,,0.00,meteobridge,2013-04-19 13:23:00,
2013-04-19 09:29:00,62.1,56.5,29.92,SW,225,3.1,7.6,82,0.00,,,0.00,meteobridge,2013-04-19 13:29:00,
2013-04-19 09:34:00,62.2,56.7,29.92,South,180,3.1,6.9,82,0.00,,,0.00,meteobridge,2013-04-19 13:34:00,
2013-04-19 09:40:00,62.6,56.3,29.92,SE,135,8.3,8.3,80,0.00,,,0.00,meteobridge,2013-04-19 13:40:00,
2013-04-19 09:46:00,63.0,56.3,29.92,West,270,5.4,10.7,79,0.00,,,0.00,meteobridge,2013-04-19 13:46:00,
2013-04-19 09:51:00,63.1,56.1,29.92,South,180,3.1,9.8,78,0.00,,,0.00,meteobridge,2013-04-19 13:51:00,
2013-04-19 09:57:00,63.3,55.9,29.92,South,180,11.4,14.5,77,0.00,,,0.00,meteobridge,2013-04-19 13:57:00,
2013-04-19 10:03:00,63.3,55.9,29.92,West,270,9.8,10.7,77,0.00,,,0.00,meteobridge,2013-04-19 14:03:00,
2013-04-19 10:08:00,63.7,55.9,29.91,South,180,8.3,8.3,76,0.00,,,0.00,meteobridge,2013-04-19 14:08:00,
2013-04-19 10:14:00,63.7,55.9,29.91,South,180,4.5,10.7,76,0.00,,,0.00,meteobridge,2013-04-19 14:14:00,
2013-04-19 10:19:00,63.7,55.6,29.91,North,0,6.0,12.1,75,0.00,,,0.00,meteobridge,2013-04-19 14:19:00,
2013-04-19 10:25:00,63.7,55.6,29.91,South,180,3.1,17.4,75,0.00,,,0.00,meteobridge,2013-04-19 14:25:00,
2013-04-19 10:31:00,63.7,55.6,29.90,SE,135,7.6,7.6,75,0.00,,,0.00,meteobridge,2013-04-19 14:31:00,
2013-04-19 10:36:00,63.9,55.8,29.90,South,180,3.8,12.1,75,0.00,,,0.00,meteobridge,2013-04-19 14:36:00,
2013-04-19 10:42:00,64.0,55.9,29.90,SW,225,7.6,7.6,75,0.00,,,0.00,meteobridge,2013-04-19 14:42:00,
2013-04-19 10:48:00,64.2,56.1,29.89,South,180,5.4,7.6,75,0.00,,,0.00,meteobridge,2013-04-19 14:48:00,
2013-04-19 10:53:00,64.2,55.8,29.89,North,0,7.6,7.6,74,0.00,,,0.00,meteobridge,2013-04-19 14:53:00,
2013-04-19 10:59:00,64.4,56.3,29.89,SE,135,12.1,13.6,75,0.00,,,0.00,meteobridge,2013-04-19 14:59:00,
2013-04-19 11:04:00,64.9,56.5,29.88,East,90,4.5,10.7,74,0.00,,,0.00,meteobridge,2013-04-19 15:04:00,
2013-04-19 11:10:00,65.3,56.5,29.88,SE,135,8.3,13.0,73,0.00,,,0.00,meteobridge,2013-04-19 15:10:00,
2013-04-19 11:16:00,66.4,57.0,29.87,SE,135,7.6,11.4,72,0.00,,,0.00,meteobridge,2013-04-19 15:16:00,
2013-04-19 11:21:00,65.8,56.5,29.87,SE,135,9.2,19.7,72,0.00,,,0.00,meteobridge,2013-04-19 15:21:00,
2013-04-19 11:27:00,66.4,56.7,29.87,SE,135,17.4,17.4,71,0.00,,,0.00,meteobridge,2013-04-19 15:27:00,
2013-04-19 11:33:00,66.7,57.0,29.87,North,0,9.8,9.8,71,0.00,,,0.00,meteobridge,2013-04-19 15:33:00,
2013-04-19 11:38:00,66.7,56.7,29.86,West,270,5.4,10.7,70,0.00,,,0.00,meteobridge,2013-04-19 15:38:00,
2013-04-19 11:44:00,66.7,56.7,29.86,East,90,13.0,13.0,70,0.00,,,0.00,meteobridge,2013-04-19 15:44:00,
2013-04-19 11:50:00,67.5,57.4,29.86,SE,135,8.3,8.3,70,0.00,,,0.00,meteobridge,2013-04-19 15:50:00,
2013-04-19 11:55:00,66.7,56.3,29.85,SE,135,5.4,14.5,69,0.00,,,0.00,meteobridge,2013-04-19 15:55:00,
2013-04-19 12:01:00,67.8,57.2,29.85,SE,135,8.3,8.3,69,0.00,,,0.00,meteobridge,2013-04-19 16:01:00,
2013-04-19 12:06:00,68.4,57.4,29.85,SE,135,9.2,12.1,68,0.00,,,0.00,meteobridge,2013-04-19 16:06:00,
2013-04-19 12:12:00,68.5,57.2,29.84,SE,135,11.4,12.1,67,0.00,,,0.00,meteobridge,2013-04-19 16:12:00,
2013-04-19 12:18:00,69.3,57.9,29.84,South,180,12.1,12.1,67,0.00,,,0.00,meteobridge,2013-04-19 16:18:00,
2013-04-19 12:23:00,69.4,57.6,29.83,SW,225,20.6,20.6,66,0.00,,,0.00,meteobridge,2013-04-19 16:23:00,
2013-04-19 12:29:00,69.8,57.0,29.82,SE,135,9.8,13.6,64,0.00,,,0.00,meteobridge,2013-04-19 16:29:00,
2013-04-19 12:35:00,70.9,57.7,29.83,East,90,9.8,15.9,63,0.00,,,0.00,meteobridge,2013-04-19 16:35:00,
2013-04-19 12:40:00,71.2,57.9,29.82,SE,135,9.8,19.0,63,0.00,,,0.00,meteobridge,2013-04-19 16:40:00,
2013-04-19 12:46:00,71.2,57.9,29.82,SE,135,13.6,20.6,63,0.00,,,0.00,meteobridge,2013-04-19 16:46:00,
2013-04-19 12:51:00,72.1,58.5,29.81,SE,135,16.8,16.8,62,0.00,,,0.00,meteobridge,2013-04-19 16:51:00,
2013-04-19 12:57:00,72.3,58.1,29.81,SE,135,16.8,16.8,61,0.00,,,0.00,meteobridge,2013-04-19 16:57:00,
2013-04-19 13:03:00,72.0,58.3,29.80,East,90,10.7,15.2,62,0.00,,,0.00,meteobridge,2013-04-19 17:03:00,
2013-04-19 13:08:00,71.8,57.6,29.80,SW,225,7.6,15.9,61,0.00,,,0.00,meteobridge,2013-04-19 17:08:00,
2013-04-19 13:14:00,71.6,57.4,29.80,SE,135,13.6,14.5,61,0.00,,,0.00,meteobridge,2013-04-19 17:14:00,
2013-04-19 13:20:00,72.1,57.9,29.79,South,180,13.0,17.4,61,0.00,,,0.00,meteobridge,2013-04-19 17:20:00,
2013-04-19 13:25:00,71.6,57.4,29.79,SE,135,15.2,18.3,61,0.00,,,0.00,meteobridge,2013-04-19 17:25:00,
2013-04-19 13:31:00,71.4,57.7,29.78,South,180,11.4,15.9,62,0.00,,,0.00,meteobridge,2013-04-19 17:31:00,
2013-04-19 13:37:00,70.9,57.2,29.79,SW,225,12.1,21.3,62,0.00,,,0.00,meteobridge,2013-04-19 17:37:00,
2013-04-19 13:42:00,71.1,57.7,29.79,SE,135,20.6,20.6,63,0.00,,,0.00,meteobridge,2013-04-19 17:42:00,
2013-04-19 13:48:00,71.8,58.1,29.79,South,180,10.7,15.9,62,0.00,,,0.00,meteobridge,2013-04-19 17:48:00,
2013-04-19 13:53:00,72.1,57.9,29.78,East,90,20.6,20.6,61,0.00,,,0.00,meteobridge,2013-04-19 17:53:00,
2013-04-19 13:59:00,71.8,57.6,29.78,SW,225,8.3,13.0,61,0.00,,,0.00,meteobridge,2013-04-19 17:59:00,
2013-04-19 14:05:00,71.8,57.6,29.78,SW,225,6.9,13.6,61,0.00,,,0.00,meteobridge,2013-04-19 18:05:00,
2013-04-19 14:10:00,72.1,57.9,29.77,SE,135,11.4,24.4,61,0.00,,,0.00,meteobridge,2013-04-19 18:10:00,
2013-04-19 14:16:00,72.0,57.7,29.78,SW,225,23.5,23.5,61,0.00,,,0.00,meteobridge,2013-04-19 18:16:00,
2013-04-19 14:22:00,71.8,57.6,29.78,East,90,9.8,13.6,61,0.00,,,0.00,meteobridge,2013-04-19 18:22:00,
2013-04-19 14:27:00,71.4,58.1,29.78,East,90,25.1,25.1,63,0.00,,,0.00,meteobridge,2013-04-19 18:27:00,
2013-04-19 14:33:00,70.9,57.7,29.78,SE,135,13.6,19.0,63,0.00,,,0.00,meteobridge,2013-04-19 18:33:00,
2013-04-19 14:38:00,70.9,57.7,29.78,South,180,13.6,17.4,63,0.00,,,0.00,meteobridge,2013-04-19 18:38:00,
2013-04-19 14:44:00,73.0,59.2,29.77,South,180,12.1,12.1,62,0.00,,,0.00,meteobridge,2013-04-19 18:44:00,
2013-04-19 14:50:00,72.9,58.6,29.77,SE,135,9.8,15.2,61,0.00,,,0.00,meteobridge,2013-04-19 18:50:00,
2013-04-19 14:55:00,72.1,58.5,29.76,South,180,9.8,14.5,62,0.00,,,0.00,meteobridge,2013-04-19 18:55:00,
2013-04-19 15:01:00,71.4,58.1,29.76,South,180,8.3,16.8,63,0.00,,,0.00,meteobridge,2013-04-19 19:01:00,
2013-04-19 15:07:00,71.4,58.1,29.76,SE,135,15.9,15.9,63,0.00,,,0.00,meteobridge,2013-04-19 19:07:00,
2013-04-19 15:12:00,71.1,58.3,29.75,South,180,5.4,11.4,64,0.00,,,0.00,meteobridge,2013-04-19 19:12:00,
2013-04-19 15:18:00,70.7,57.9,29.75,SW,225,22.8,22.8,64,0.00,,,0.00,meteobridge,2013-04-19 19:18:00,
2013-04-19 15:24:00,70.5,58.1,29.75,East,90,9.8,26.6,65,0.00,,,0.00,meteobridge,2013-04-19 19:24:00,
2013-04-19 15:29:00,71.2,58.8,29.75,South,180,13.6,13.6,65,0.00,,,0.00,meteobridge,2013-04-19 19:29:00,
2013-04-19 15:35:00,71.1,58.6,29.74,SE,135,15.2,15.2,65,0.00,,,0.00,meteobridge,2013-04-19 19:35:00,
2013-04-19 15:40:00,70.3,58.1,29.74,South,180,14.5,14.5,65,0.00,,,0.00,meteobridge,2013-04-19 19:40:00,
2013-04-19 15:46:00,70.5,58.1,29.74,SE,135,10.7,16.8,65,0.00,,,0.00,meteobridge,2013-04-19 19:46:00,
2013-04-19 15:52:00,70.3,57.6,29.73,SE,135,7.6,11.4,64,0.00,,,0.00,meteobridge,2013-04-19 19:52:00,
2013-04-19 15:57:00,69.4,57.6,29.73,East,90,19.0,19.0,66,0.00,,,0.00,meteobridge,2013-04-19 19:57:00,
2013-04-19 16:03:00,70.3,58.1,29.72,SE,135,15.9,15.9,65,0.00,,,0.00,meteobridge,2013-04-19 20:03:00,
2013-04-19 16:09:00,71.1,58.3,29.71,SE,135,16.8,24.4,64,0.00,,,0.00,meteobridge,2013-04-19 20:09:00,
2013-04-19 16:14:00,71.6,58.3,29.71,East,90,9.8,10.7,63,0.00,,,0.00,meteobridge,2013-04-19 20:14:00,
2013-04-19 16:20:00,70.2,57.4,29.69,SE,135,14.5,20.6,64,0.00,,,0.00,meteobridge,2013-04-19 20:20:00,
2013-04-19 16:26:00,70.9,58.1,29.70,SE,135,9.8,10.7,64,0.00,,,0.00,meteobridge,2013-04-19 20:26:00,
2013-04-19 16:31:00,69.3,57.0,29.69,SE,135,15.9,25.1,65,0.00,,,0.00,meteobridge,2013-04-19 20:31:00,
2013-04-19 16:37:00,70.2,57.4,29.68,SE,135,6.0,13.6,64,0.00,,,0.00,meteobridge,2013-04-19 20:37:00,
2013-04-19 16:42:00,69.6,57.4,29.69,SE,135,9.8,14.5,65,0.00,,,0.00,meteobridge,2013-04-19 20:42:00,
2013-04-19 16:48:00,68.7,56.8,29.69,SE,135,14.5,16.8,66,0.00,,,0.00,meteobridge,2013-04-19 20:48:00,
2013-04-19 16:54:00,69.3,57.4,29.69,SE,135,13.0,13.0,66,0.00,,,0.00,meteobridge,2013-04-19 20:54:00,
2013-04-19 16:59:00,68.7,56.8,29.69,SE,135,21.3,21.3,66,0.00,,,0.00,meteobridge,2013-04-19 20:59:00,
2013-04-19 17:05:00,68.4,57.0,29.69,East,90,21.3,21.3,67,0.00,,,0.00,meteobridge,2013-04-19 21:05:00,
2013-04-19 17:11:00,68.2,57.2,29.69,SE,135,7.6,12.1,68,0.00,,,0.00,meteobridge,2013-04-19 21:11:00,
2013-04-19 17:16:00,68.2,57.2,29.69,SE,135,14.5,14.5,68,0.00,,,0.00,meteobridge,2013-04-19 21:16:00,
2013-04-19 17:22:00,66.6,57.2,29.68,SE,135,10.7,15.9,72,0.00,,,0.00,meteobridge,2013-04-19 21:22:00,
2013-04-19 17:27:00,66.6,57.6,29.69,SE,135,7.6,12.1,73,0.00,,,0.00,meteobridge,2013-04-19 21:27:00,
2013-04-19 17:33:00,65.8,57.4,29.70,NE,45,3.8,10.7,74,0.00,,,0.00,meteobridge,2013-04-19 21:33:00,
2013-04-19 17:39:00,65.5,57.4,29.68,South,180,11.4,13.6,75,0.00,,,0.00,meteobridge,2013-04-19 21:39:00,
2013-04-19 17:44:00,64.8,56.7,29.67,SE,135,14.5,15.2,75,0.00,,,0.00,meteobridge,2013-04-19 21:44:00,
2013-04-19 17:50:00,64.8,56.7,29.67,SE,135,9.2,18.3,75,0.00,,,0.00,meteobridge,2013-04-19 21:50:00,
2013-04-19 17:56:00,65.3,57.2,29.67,East,90,7.6,8.3,75,0.00,,,0.00,meteobridge,2013-04-19 21:56:00,
2013-04-19 18:01:00,65.5,57.4,29.68,SE,135,8.3,14.5,75,0.00,,,0.00,meteobridge,2013-04-19 22:01:00,
2013-04-19 18:07:00,65.1,57.0,29.68,North,0,6.0,10.7,75,0.00,,,0.00,meteobridge,2013-04-19 22:07:00,
2013-04-19 18:13:00,65.5,57.4,29.68,SE,135,3.8,6.9,75,0.00,,,0.00,meteobridge,2013-04-19 22:13:00,
2013-04-19 18:18:00,65.8,57.7,29.68,SW,225,4.5,4.5,75,0.00,,,0.00,meteobridge,2013-04-19 22:18:00,
2013-04-19 18:24:00,65.3,56.8,29.67,South,180,6.0,18.3,74,0.00,,,0.00,meteobridge,2013-04-19 22:24:00,
2013-04-19 18:29:00,65.3,56.8,29.68,SE,135,15.9,15.9,74,0.00,,,0.00,meteobridge,2013-04-19 22:29:00,
2013-04-19 18:35:00,65.3,56.5,29.68,South,180,15.2,15.2,73,0.00,,,0.00,meteobridge,2013-04-19 22:35:00,
2013-04-19 18:41:00,65.3,56.5,29.68,East,90,9.2,14.5,73,0.00,,,0.00,meteobridge,2013-04-19 22:41:00,
2013-04-19 18:46:00,65.3,56.5,29.68,East,90,9.2,12.1,73,0.00,,,0.00,meteobridge,2013-04-19 22:46:00,
2013-04-19 18:52:00,65.3,56.5,29.68,South,180,17.4,17.4,73,0.00,,,0.00,meteobridge,2013-04-19 22:52:00,
2013-04-19 18:58:00,65.3,56.5,29.68,South,180,8.3,15.2,73,0.00,,,0.00,meteobridge,2013-04-19 22:58:00,
2013-04-19 19:03:00,65.3,56.8,29.67,East,90,11.4,11.4,74,0.00,,,0.00,meteobridge,2013-04-19 23:03:00,
2013-04-19 19:09:00,65.3,56.8,29.67,SE,135,15.9,15.9,74,0.00,,,0.00,meteobridge,2013-04-19 23:09:00,
2013-04-19 19:15:00,65.1,57.0,29.67,SE,135,11.4,11.4,75,0.00,,,0.00,meteobridge,2013-04-19 23:15:00,
2013-04-19 19:20:00,65.3,57.2,29.66,South,180,8.3,15.9,75,0.00,,,0.00,meteobridge,2013-04-19 23:20:00,
2013-04-19 19:26:00,65.3,57.2,29.66,SE,135,12.1,18.3,75,0.00,,,0.00,meteobridge,2013-04-19 23:26:00,
2013-04-19 19:31:00,65.3,57.2,29.65,SE,135,14.5,14.5,75,0.00,,,0.00,meteobridge,2013-04-19 23:31:00,
2013-04-19 19:37:00,65.5,57.4,29.65,East,90,7.6,15.9,75,0.00,,,0.00,meteobridge,2013-04-19 23:37:00,
2013-04-19 19:43:00,65.7,57.6,29.65,East,90,17.4,17.4,75,0.00,,,0.00,meteobridge,2013-04-19 23:43:00,
2013-04-19 19:48:00,65.7,57.6,29.66,SW,225,13.0,13.0,75,0.00,,,0.00,meteobridge,2013-04-19 23:48:00,
2013-04-19 19:54:00,65.7,57.6,29.65,SE,135,12.1,15.2,75,0.00,,,0.00,meteobridge,2013-04-19 23:54:00,
2013-04-19 20:00:00,65.8,57.7,29.65,NE,45,6.9,19.7,75,0.00,,,0.00,meteobridge,2013-04-20 00:00:00,
2013-04-19 20:05:00,65.8,57.7,29.65,SW,225,7.6,13.0,75,0.00,,,0.00,meteobridge,2013-04-20 00:05:00,
2013-04-19 20:11:00,66.4,57.9,29.65,South,180,6.9,16.8,74,0.00,,,0.00,meteobridge,2013-04-20 00:11:00,
2013-04-19 20:16:00,66.7,58.1,29.65,East,90,9.2,19.0,74,0.00,,,0.00,meteobridge,2013-04-20 00:16:00,
2013-04-19 20:22:00,66.6,58.1,29.65,South,180,13.0,13.0,74,0.00,,,0.00,meteobridge,2013-04-20 00:22:00,
2013-04-19 20:28:00,66.7,58.1,29.65,SE,135,14.5,19.0,74,0.00,,,0.00,meteobridge,2013-04-20 00:28:00,
2013-04-19 20:33:00,66.6,58.1,29.65,South,180,10.7,10.7,74,0.00,,,0.00,meteobridge,2013-04-20 00:33:00,
2013-04-19 20:39:00,66.4,57.9,29.64,NE,45,9.8,11.4,74,0.00,,,0.00,meteobridge,2013-04-20 00:39:00,
2013-04-19 20:45:00,66.2,57.7,29.65,South,180,13.0,13.0,74,0.00,,,0.00,meteobridge,2013-04-20 00:45:00,
2013-04-19 20:50:00,66.2,57.7,29.65,SE,135,13.0,13.0,74,0.00,,,0.00,meteobridge,2013-04-20 00:50:00,
2013-04-19 20:56:00,66.0,57.9,29.65,SE,135,10.7,18.3,75,0.00,,,0.00,meteobridge,2013-04-20 00:56:00,
2013-04-19 21:02:00,65.8,58.1,29.65,SE,135,7.6,14.5,76,0.00,,,0.00,meteobridge,2013-04-20 01:02:00,
2013-04-19 21:07:00,66.0,58.3,29.65,SE,135,15.2,15.2,76,0.00,,,0.00,meteobridge,2013-04-20 01:07:00,
2013-04-19 21:13:00,65.7,57.9,29.65,SE,135,11.4,11.4,76,0.00,,,0.00,meteobridge,2013-04-20 01:13:00,
2013-04-19 21:18:00,65.5,57.7,29.65,SE,135,13.0,19.0,76,0.00,,,0.00,meteobridge,2013-04-20 01:18:00,
2013-04-19 21:23:00,65.3,57.9,29.65,East,90,12.1,12.1,77,0.00,,,0.00,meteobridge,2013-04-20 01:23:00,
2013-04-19 21:29:00,65.5,58.1,29.65,SE,135,14.5,14.5,77,0.00,,,0.00,meteobridge,2013-04-20 01:29:00,
2013-04-19 21:35:00,65.3,57.9,29.65,SE,135,9.2,15.9,77,0.00,,,0.00,meteobridge,2013-04-20 01:35:00,
2013-04-19 21:40:00,65.3,57.9,29.65,SE,135,7.6,13.6,77,0.00,,,0.00,meteobridge,2013-04-20 01:40:00,
2013-04-19 21:46:00,65.5,58.1,29.65,South,180,7.6,8.3,77,0.00,,,0.00,meteobridge,2013-04-20 01:46:00,
2013-04-19 21:51:00,65.7,58.3,29.65,SE,135,12.1,12.1,77,0.00,,,0.00,meteobridge,2013-04-20 01:51:00,
2013-04-19 21:57:00,65.7,58.3,29.65,SE,135,13.0,13.0,77,0.00,,,0.00,meteobridge,2013-04-20 01:57:00,
2013-04-19 22:03:00,65.7,58.3,29.65,SE,135,8.3,13.6,77,0.00,,,0.00,meteobridge,2013-04-20 02:03:00,
2013-04-19 22:08:00,66.2,58.5,29.65,SW,225,8.3,8.3,76,0.00,,,0.00,meteobridge,2013-04-20 02:08:00,
2013-04-19 22:14:00,66.2,58.5,29.65,SW,225,7.6,12.1,76,0.00,,,0.00,meteobridge,2013-04-20 02:14:00,
2013-04-19 22:20:00,66.4,58.3,29.65,SE,135,8.3,14.5,75,0.00,,,0.00,meteobridge,2013-04-20 02:20:00,
2013-04-19 22:25:00,66.4,58.3,29.64,SW,225,9.2,9.2,75,0.00,,,0.00,meteobridge,2013-04-20 02:25:00,
2013-04-19 22:31:00,66.4,58.3,29.64,SW,225,10.7,10.7,75,0.00,,,0.00,meteobridge,2013-04-20 02:31:00,
2013-04-19 22:37:00,66.2,58.1,29.64,SW,225,9.2,10.7,75,0.00,,,0.00,meteobridge,2013-04-20 02:37:00,
2013-04-19 22:42:00,64.6,58.3,29.65,SW,225,3.8,8.3,80,0.05,,,0.05,meteobridge,2013-04-20 02:42:00,
2013-04-19 22:48:00,65.3,59.7,29.66,SW,225,11.4,13.6,82,0.05,,,0.05,meteobridge,2013-04-20 02:48:00,
2013-04-19 22:53:00,64.2,59.0,29.67,South,180,8.3,8.3,83,0.06,,,0.06,meteobridge,2013-04-20 02:53:00,
2013-04-19 22:59:00,64.8,59.9,29.67,SW,225,6.0,6.0,84,0.07,,,0.07,meteobridge,2013-04-20 02:59:00,
2013-04-19 23:05:00,64.8,59.9,29.66,SW,225,6.9,6.9,84,0.07,,,0.07,meteobridge,2013-04-20 03:05:00,
2013-04-19 23:10:00,64.2,59.0,29.66,West,270,6.9,6.9,83,0.07,,,0.07,meteobridge,2013-04-20 03:10:00,
2013-04-19 23:16:00,64.0,58.8,29.68,West,270,3.8,4.5,83,0.08,,,0.08,meteobridge,2013-04-20 03:16:00,
2013-04-19 23:21:00,63.9,59.0,29.66,East,90,3.1,4.5,84,0.08,,,0.08,meteobridge,2013-04-20 03:21:00,
2013-04-19 23:27:00,64.2,59.0,29.65,NE,45,7.6,7.6,83,0.09,,,0.09,meteobridge,2013-04-20 03:27:00,
2013-04-19 23:32:00,63.3,57.7,29.64,South,180,4.5,4.5,82,0.11,,,0.11,meteobridge,2013-04-20 03:32:00,
2013-04-19 23:38:00,63.9,57.9,29.63,SW,225,6.0,6.0,81,0.06,,,0.11,meteobridge,2013-04-20 03:38:00,
2013-04-19 23:44:00,63.7,57.7,29.64,South,180,3.8,4.5,81,0.06,,,0.11,meteobridge,2013-04-20 03:44:00,
2013-04-19 23:49:00,63.3,57.4,29.64,South,180,0.0,0.0,81,0.05,,,0.11,meteobridge,2013-04-20 03:49:00,
2013-04-19 23:55:00,63.5,57.9,29.64,West,270,3.8,3.8,82,0.05,,,0.11,meteobridge,2013-04-20 03:55:00,